METAR Data
IDs: Format: Raw Decoded Include TAF

Data at: 1424 UTC 12 Dec 2018

PAGN 121356Z AUTO VRB03KT 10SM FEW002 SCT041 BKN050 00/M01 A2944 RMK AO2 SLP958 T00001006 FZRANO
PAGN 121309Z AUTO 00000KT 10SM FEW002 BKN060 BKN080 01/M01 A2943 RMK AO2 FZRANO
PAGN 121256Z AUTO 00000KT 9SM FEW060 BKN075 01/M01 A2943 RMK AO2 RAE07 SLP955 P0000 T00061006 FZRANO
PAGN 121212Z AUTO 00000KT 10SM SCT017 BKN050 02/01 A2942 RMK AO2 RAE07 P0000 FZRANO
PAGN 121156Z AUTO VRB06KT 10SM -RA BKN015 BKN022 OVC050 02/01 A2942 RMK AO2 SNB29E40 SLP952 P0003 60015 70077 T00170006 10022 20017 51015 FZRANO
PAGN 121115Z AUTO VRB04KT 10SM -RA FEW017 BKN025 OVC060 02/01 A2941 RMK AO2 P0000 FZRANO
PAGN 121104Z AUTO VRB05KT 10SM -RA SCT017 BKN032 OVC055 02/01 A2941 RMK AO2 P0000 FZRANO
PAGN 121056Z AUTO 16006KT 10SM -RA FEW013 BKN017 OVC050 02/01 A2940 RMK AO2 SLP947 P0001 T00220011 FZRANO
PAGN 121053Z AUTO VRB06KT 10SM -RA FEW012 BKN019 OVC050 02/01 A2940 RMK AO2 P0001 FZRANO
PAGN 121045Z AUTO VRB05KT 10SM -RA SCT020 BKN030 OVC050 02/01 A2940 RMK AO2 P0001 FZRANO
PAGN 120956Z AUTO VRB03KT 10SM -RA SCT011 BKN018 OVC060 02/01 A2937 RMK AO2 UPB27E41 SLP937 P0008 T00170011 FZRANO
PAGN 120944Z AUTO VRB04KT 10SM -RA SCT009 BKN013 OVC030 02/01 A2938 RMK AO2 UPB27E41 P0008 FZRANO
PAGN 120856Z AUTO 00000KT 9SM -RA OVC017 02/02 A2935 RMK AO2 SLP927 P0002 60003 T00220017 400390006 53031 FZRANO
PAGN 120756Z AUTO VRB03KT 10SM -RA SCT014 BKN026 OVC044 02/02 A2932 RMK AO2 RAB35 SLP916 P0001 T00220017 FZRANO
PAGN 120747Z AUTO VRB04KT 8SM -RA BKN016 BKN033 OVC060 02/02 A2931 RMK AO2 RAB35 P0001 FZRANO
PAGN 120656Z AUTO 16005KT 10SM FEW017 SCT060 02/02 A2926 RMK AO2 RAB27E45 SLP898 P0000 T00220017 FZRANO
PAGN 120651Z AUTO VRB04KT 10SM FEW008 SCT018 SCT060 02/02 A2925 RMK AO2 RAB27E45 P0000 FZRANO
PAGN 120644Z AUTO 00000KT 10SM -RA SCT008 BKN018 BKN060 02/02 A2925 RMK AO2 RAB27 P0000 FZRANO
PAGN 120605Z AUTO 00000KT 10SM BKN008 BKN014 02/01 A2923 RMK AO2 CIG 007V012 FZRANO
PAGN 120556Z AUTO 00000KT 10SM FEW002 SCT014 SCT035 02/01 A2923 RMK AO2 RAE28 SLP886 P0004 60018 T00170011 10033 20017 51025 FZRANO
PAGN 120553Z AUTO 00000KT 10SM FEW002 SCT045 02/01 A2922 RMK AO2 RAE28 P0004 FZRANO
PAGN 120529Z AUTO 00000KT 10SM SCT016 BKN039 OVC045 02/02 A2921 RMK AO2 RAE28 P0003 FZRANO
PAGN 120456Z AUTO 17005KT 10SM -RA SCT013 BKN020 OVC029 03/02 A2920 RMK AO2 SLP877 P0005 T00280022
PAGN 120442Z AUTO 16006KT 6SM RA BR SCT013 BKN018 OVC033 03/03 A2919 RMK AO2 P0004
PAGN 120422Z AUTO 17005KT 10SM FEW013 SCT021 OVC035 03/02 A2917 RMK AO2 RAE18 P0001
PAGN 120356Z AUTO 17006KT 6SM RA BR BKN017 OVC026 02/02 A2915 RMK AO2 SLP861 P0005 T00220022 FZRANO
PAGN 120256Z AUTO 00000KT 10SM -RA FEW006 OVC022 02/02 A2912 RMK AO2 SLP852 P0002 60004 T00220017 51017 FZRANO
PAGN 120248Z AUTO 00000KT 10SM -RA BKN022 BKN027 OVC070 02/02 A2913 RMK AO2 P0001 FZRANO
PAGN 120209Z AUTO 00000KT 10SM -RA SCT022 BKN033 BKN060 02/02 A2911 RMK AO2 P0001 FZRANO
PAGN 120156Z AUTO 00000KT 10SM -RA BKN022 BKN030 OVC035 02/02 A2911 RMK AO2 SLP846 P0002 T00220017 FZRANO
PAGN 120134Z AUTO 00000KT 10SM -RA BKN027 OVC033 02/02 A2911 RMK AO2 P0001 FZRANO
PAGN 120056Z AUTO 00000KT 10SM -RA FEW017 BKN035 OVC065 02/02 A2910 RMK AO2 RAB55 SLP843 P0000 T00220017 FZRANO
PAGN 120024Z AUTO 00000KT 10SM FEW001 BKN033 OVC110 03/02 A2908 RMK AO2
PAGN 120005Z AUTO 00000KT 7SM OVC031 03/03 A2908 RMK AO2
PAGN 112356Z AUTO 00000KT 10SM BKN029 OVC065 03/03 A2908 RMK AO2 SLP835 60020 T00330028 10039 20006 51017
PAGN 112353Z AUTO 00000KT 10SM BKN029 BKN070 OVC085 03/03 A2908 RMK AO2
PAGN 112256Z AUTO VRB03KT 10SM FEW022 BKN034 OVC100 03/03 A2905 RMK AO2 RAE07UPB19E37 SLP827 P0000 T00280028
PAGN 112245Z AUTO 00000KT 7SM SCT020 BKN034 OVC070 03/02 A2905 RMK AO2 RAE07UPB19E37 P0000
PAGN 112222Z AUTO 00000KT 10SM UP FEW017 BKN023 OVC055 02/02 A2904 RMK AO2 RAE07UPB19 P0000 FZRANO
PAGN 112156Z AUTO 00000KT 10SM -RA FEW019 BKN041 OVC048 02/02 A2903 RMK AO2 SLP819 P0005 T00170017 FZRANO
PAGN 112059Z AUTO 00000KT 10SM -RA FEW008 BKN019 OVC028 01/01 A2899 RMK AO2 P0001 FZRANO
PAGN 112056Z AUTO 00000KT 10SM -RA FEW010 BKN013 OVC026 01/01 A2899 RMK AO2 SLP805 P0002 60015 T00110006 53026 FZRANO
PAGN 112042Z AUTO 00000KT 9SM -RA FEW013 BKN028 OVC036 01/01 A2898 RMK AO2 P0001 FZRANO
PAGN 112025Z AUTO 00000KT 9SM -RA FEW007 BKN037 OVC049 01/01 A2896 RMK AO2 P0000 FZRANO
PAGN 112005Z AUTO 00000KT 10SM -RA SCT007 BKN028 OVC049 01/01 A2895 RMK AO2 P0000 FZRANO
PAGN 111956Z AUTO 00000KT 6SM -RA BR BKN028 BKN033 OVC049 01/01 A2895 RMK AO2 RAE18B35UPB18E35 SLP791 P0004 T00060006 FZRANO
PAGN 111856Z AUTO 00000KT 10SM -RA FEW007 BKN021 OVC028 01/00 A2891 RMK AO2 RAB50SNE50 SLP780 P0009 T00060000 FZRANO
PAGN 111852Z AUTO 00000KT 6SM -RA BR FEW007 BKN021 OVC028 01/00 A2891 RMK AO2 RAB50SNE50 P0009 FZRANO
PAGN 111835Z AUTO 00000KT 1 3/4SM -SN BR FEW007 BKN015 OVC022 01/00 A2890 RMK AO2 VIS 1/2V5 P0008 FZRANO
PAGN 111832Z AUTO 00000KT 3SM -SN BR FEW007 SCT015 OVC022 01/00 A2890 RMK AO2 P0007 FZRANO
PAGN 111823Z AUTO 00000KT 2SM -SN BR BKN015 OVC022 01/00 A2890 RMK AO2 VIS 1V4 P0005 FZRANO
PAGN 111815Z AUTO 00000KT 1 1/2SM -SN BR OVC013 01/00 A2890 RMK AO2 VIS 1V2 1/2 P0002 FZRANO
PAGN 111803Z AUTO 00000KT 2 1/2SM -SN BR OVC013 01/00 A2889 RMK AO2 VIS 1 1/2V5 P0001 FZRANO
PAGN 111756Z AUTO 00000KT 3SM -SN BR OVC015 01/01 A2889 RMK AO2 RAE49UPB49E52SNB52 SLP772 P0009 60024 T00060006 10033 20006 53016 FZRANO
PAGN 111656Z AUTO 19003KT 10SM -RA OVC025 02/01 A2887 RMK AO2 SLP764 P0003 T00170011 FZRANO
PAGN 111607Z AUTO 10003KT 10SM -RA FEW005 OVC028 02/01 A2884 RMK AO2 P0001 FZRANO
PAGN 111556Z AUTO 00000KT 10SM -RA FEW005 SCT010 OVC030 02/01 A2884 RMK AO2 SLP756 P0002 T00220011 FZRANO
PAGN 111551Z AUTO 10004KT 10SM -RA FEW005 BKN027 OVC035 02/02 A2884 RMK AO2 P0002 FZRANO
PAGN 111538Z AUTO 10003KT 10SM -RA FEW005 OVC036 02/02 A2884 RMK AO2 P0002 FZRANO
PAGN 111522Z AUTO 11003KT 10SM -RA SCT029 OVC038 02/02 A2884 RMK AO2 P0001 FZRANO
PAGN 111456Z AUTO 00000KT 10SM -RA OVC029 02/02 A2885 RMK AO2 SLP758 P0003 60010 T00220017 56012 FZRANO
PAGN 111356Z AUTO 00000KT 10SM -RA OVC023 03/02 A2886 RMK AO2 SLP761 P0004 T00280022
PAGN 111256Z AUTO VRB03KT 10SM -RA OVC026 03/02 A2886 RMK AO2 SLP763 P0003 T00280022
PAGN 111156Z AUTO 05006KT 10SM -RA BKN028 BKN042 OVC055 03/02 A2888 RMK AO2 SLP769 P0002 60018 70047 T00330022 10044 20033 58027
PAGN 111140Z AUTO 06007KT 10SM -RA FEW025 BKN045 OVC055 03/02 A2889 RMK AO2 P0001
PAGN 111056Z AUTO 06007KT 10SM -RA OVC027 03/02 A2891 RMK AO2 SLP779 P0005 T00330022
PAGN 110956Z AUTO 06006KT 9SM -RA OVC027 03/02 A2893 RMK AO2 SLP788 P0005 T00330022
PAGN 110856Z AUTO VRB04KT 10SM -RA OVC027 04/03 A2896 RMK AO2 SLP796 P0002 60006 T00390028 400560033 56024
PAGN 110838Z AUTO VRB04KT 10SM -RA BKN029 OVC035 04/02 A2897 RMK AO2 P0001
PAGN 110756Z AUTO 09006KT 10SM -RA OVC042 04/02 A2897 RMK AO2 SLP801 P0001 T00390022
PAGN 110656Z AUTO 10008KT 10SM -RA OVC033 04/02 A2900 RMK AO2 SLP811 P0003 T00440022
PAGN 110556Z AUTO 09008KT 10SM -RA SCT030 OVC036 04/02 A2903 RMK AO2 SLP819 P0003 60027 T00440022 10050 20039 56022
PAGN 110456Z AUTO 08008G16KT 10SM -RA OVC036 04/03 A2904 RMK AO2 SLP824 P0002 T00390028
PAGN 110411Z AUTO 09009G17KT 10SM -RA SCT028 BKN035 OVC041 04/02 A2906 RMK AO2 P0001
PAGN 110356Z AUTO 09010KT 060V130 8SM -RA BKN029 OVC035 04/03 A2906 RMK AO2 SLP830 P0005 T00390028
PAGN 110256Z AUTO 10009G16KT 6SM -RA BR OVC025 04/03 A2909 RMK AO2 SLP841 P0007 60017 T00440028 56047